Time;durP1;ratioP1;P1;durP2;ratioP2;P2;SDS_P1;SDS_P2;PMS_P1;PMS_P2;Temp;Humidity;BMP_temperature;BMP_pressure;BME280_temperature;BME280_humidity;BME280_pressure;Samples;Min_cycle;Max_cycle;Signal;HPM_P1;HPM_P2
2021/07/26 03:28:35;;;;;;;661.00;633.43;;;14.70;99.90;;;;;;4769263;30;20850;-81
2021/07/26 03:31:02;;;;;;;665.00;636.80;;;14.80;99.90;;;;;;4769494;30;20541;-76
2021/07/26 03:33:29;;;;;;;656.77;628.97;;;14.80;99.90;;;;;;4770176;30;20471;-79
2021/07/26 03:35:56;;;;;;;695.77;665.10;;;14.70;99.90;;;;;;4770198;30;20462;-79
2021/07/26 03:38:23;;;;;;;680.33;650.53;;;14.70;99.90;;;;;;4770375;30;20483;-78
2021/07/26 03:40:51;;;;;;;664.47;635.97;;;14.70;99.90;;;;;;4770561;30;20468;-79
2021/07/26 03:43:18;;;;;;;670.23;640.90;;;14.60;99.90;;;;;;4770393;30;20496;-80
2021/07/26 03:45:46;;;;;;;658.67;629.37;;;14.60;99.90;;;;;;4769164;30;20853;-77
2021/07/26 03:48:13;;;;;;;660.00;630.60;;;14.70;99.90;;;;;;4770426;30;20465;-81
2021/07/26 03:50:40;;;;;;;639.73;611.23;;;14.70;99.90;;;;;;4770202;30;20849;-81
2021/07/26 03:56:29;;;;;;;690.83;657.77;;;14.90;99.90;;;;;;4697580;30;20978;-81
2021/07/26 03:58:58;;;;;;;668.17;638.17;;;15.00;99.90;;;;;;4739368;30;20480;-81
2021/07/26 04:01:26;;;;;;;673.53;642.93;;;15.10;99.90;;;;;;4769158;30;20516;-77
2021/07/26 04:03:53;;;;;;;667.20;637.10;;;15.20;99.90;;;;;;4770191;30;20895;-77
2021/07/26 04:06:21;;;;;;;665.03;635.57;;;15.20;99.90;;;;;;4770165;30;20547;-76
2021/07/26 04:08:50;;;;;;;668.37;639.27;;;15.30;99.90;;;;;;4770098;30;20472;-77
2021/07/26 04:11:22;;;;;;;678.23;649.13;;;15.30;99.90;;;;;;4770138;30;20840;-77
2021/07/26 04:13:54;;;;;;;710.17;680.00;;;15.40;99.90;;;;;;4770045;30;20973;-77
2021/07/26 04:16:21;;;;;;;721.83;691.17;;;15.50;99.90;;;;;;4768800;30;20471;-77
2021/07/26 04:18:51;;;;;;;714.27;683.57;;;15.50;99.90;;;;;;4769973;30;20465;-77
2021/07/26 04:21:18;;;;;;;684.23;655.77;;;15.60;99.90;;;;;;4769851;30;20551;-77
2021/07/26 04:23:45;;;;;;;726.70;696.57;;;15.70;99.90;;;;;;4769866;30;21031;-76
2021/07/26 04:26:12;;;;;;;731.43;701.20;;;15.70;99.90;;;;;;4769602;30;20900;-77
2021/07/26 04:28:39;;;;;;;701.83;674.20;;;15.80;99.90;;;;;;4769904;30;20496;-77
2021/07/26 04:31:21;;;;;;;738.33;708.97;;;15.90;99.90;;;;;;4768792;30;20553;-85
2021/07/26 04:33:49;;;;;;;728.40;698.73;;;16.00;99.90;;;;;;4769805;30;20465;-80
2021/07/26 04:36:16;;;;;;;696.43;670.13;;;16.00;99.90;;;;;;4769551;30;20522;-79
2021/07/26 04:38:43;;;;;;;693.90;667.63;;;16.00;99.90;;;;;;4769754;30;20846;-82
2021/07/26 04:41:10;;;;;;;760.43;729.57;;;16.10;99.90;;;;;;4769841;30;20530;-83
2021/07/26 04:43:37;;;;;;;748.50;718.13;;;16.10;99.90;;;;;;4769763;30;20580;-79
2021/07/26 04:46:05;;;;;;;708.67;680.87;;;16.20;99.90;;;;;;4768688;30;20551;-82
2021/07/26 04:48:32;;;;;;;683.00;657.43;;;16.30;99.90;;;;;;4769694;30;20475;-76
2021/07/26 04:51:00;;;;;;;696.47;670.40;;;16.40;99.90;;;;;;4769706;30;20878;-76
2021/07/26 04:53:27;;;;;;;616.43;594.97;;;16.50;99.90;;;;;;4769837;30;20469;-77
2021/07/26 04:55:54;;;;;;;620.50;599.00;;;16.70;99.90;;;;;;4769750;30;20827;-77
2021/07/26 04:58:20;;;;;;;590.33;570.17;;;16.80;99.90;;;;;;4769699;30;20464;-77
2021/07/26 05:00:47;;;;;;;588.20;568.23;;;16.90;99.90;;;;;;4768447;30;20464;-75
2021/07/26 05:03:14;;;;;;;621.43;600.03;;;17.10;99.90;;;;;;4769499;30;20496;-79
2021/07/26 05:05:41;;;;;;;432.50;417.80;;;17.20;99.90;;;;;;4769661;30;20526;-78
2021/07/26 05:08:09;;;;;;;388.93;375.50;;;17.30;99.90;;;;;;4769269;30;20844;-78
2021/07/26 05:10:36;;;;;;;375.33;362.23;;;17.40;99.90;;;;;;4769413;30;20474;-79
2021/07/26 05:13:03;;;;;;;324.23;312.43;;;17.50;99.90;;;;;;4769492;30;20475;-83
2021/07/26 05:15:30;;;;;;;289.93;278.97;;;17.70;98.80;;;;;;4768266;30;20471;-78
2021/07/26 05:17:57;;;;;;;290.87;279.87;;;17.70;97.90;;;;;;4769468;30;20469;-83
2021/07/26 05:20:23;;;;;;;263.10;252.00;;;17.80;97.40;;;;;;4769462;30;20499;-80
2021/07/26 05:22:50;;;;;;;203.17;193.97;;;18.00;96.50;;;;;;4769328;30;20508;-84
2021/07/26 05:25:18;;;;;;;131.43;124.10;;;18.10;95.40;;;;;;4769450;30;20468;-82
2021/07/26 05:27:45;;;;;;;121.40;114.47;;;18.20;94.40;;;;;;4769329;30;20524;-84
2021/07/26 05:30:13;;;;;;;107.07;100.47;;;18.30;94.10;;;;;;4767962;30;20468;-83
2021/07/26 05:32:40;;;;;;;99.67;93.23;;;18.40;92.80;;;;;;4769335;30;20472;-79
2021/07/26 05:35:08;;;;;;;94.33;87.73;;;18.50;92.40;;;;;;4769303;30;20479;-85
2021/07/26 05:37:35;;;;;;;80.67;74.67;;;18.60;92.00;;;;;;4768966;30;20472;-85
2021/07/26 05:40:02;;;;;;;55.03;50.00;;;18.70;91.20;;;;;;4771462;30;20962;-84
2021/07/26 05:42:30;;;;;;;43.00;35.70;;;18.80;90.30;;;;;;4772294;30;20491;-82
2021/07/26 05:45:03;;;;;;;41.50;24.40;;;18.90;85.70;;;;;;4771295;30;20475;-80
2021/07/26 05:47:30;;;;;;;37.00;19.57;;;19.00;81.20;;;;;;4772521;30;20472;-82
2021/07/26 05:49:57;;;;;;;38.50;17.90;;;19.10;78.80;;;;;;4772341;30;20508;-84
2021/07/26 05:52:24;;;;;;;36.90;14.23;;;19.20;78.30;;;;;;4772387;30;20584;-84
2021/07/26 05:54:50;;;;;;;39.93;16.30;;;19.40;75.40;;;;;;4772221;30;20468;-81
2021/07/26 05:57:19;;;;;;;38.90;14.53;;;19.60;75.90;;;;;;4772043;30;20471;-85
2021/07/26 05:59:52;;;;;;;39.07;12.47;;;19.80;73.70;;;;;;4771016;30;20930;-83
2021/07/26 06:02:19;;;;;;;40.33;9.20;;;20.00;70.10;;;;;;4771946;30;20504;-83
2021/07/26 06:04:46;;;;;;;40.90;9.00;;;20.30;67.80;;;;;;4772298;30;20795;-79
2021/07/26 06:07:14;;;;;;;43.00;8.80;;;20.60;65.10;;;;;;4772095;30;20825;-79
2021/07/26 06:09:41;;;;;;;42.47;9.10;;;20.90;62.70;;;;;;4772099;30;20464;-78
2021/07/26 06:12:08;;;;;;;41.77;7.90;;;20.80;57.90;;;;;;4772075;30;20559;-81
2021/07/26 06:14:34;;;;;;;40.50;7.30;;;20.90;56.00;;;;;;4770945;30;20461;-77
2021/07/26 06:17:03;;;;;;;41.63;7.70;;;20.90;55.30;;;;;;4772060;30;20883;-77
2021/07/26 06:19:30;;;;;;;40.47;8.13;;;20.90;55.80;;;;;;4740458;30;20516;-78
2021/07/26 06:21:57;;;;;;;39.37;7.17;;;21.00;54.60;;;;;;4771907;30;20854;-79
2021/07/26 06:24:25;;;;;;;38.60;6.87;;;20.90;55.70;;;;;;4771577;30;20469;-83
2021/07/26 06:26:55;;;;;;;40.87;7.10;;;20.80;55.70;;;;;;4771624;30;20497;-81
2021/07/26 06:29:25;;;;;;;39.70;7.30;;;20.80;54.00;;;;;;4770690;30;20853;-78
2021/07/26 06:31:52;;;;;;;39.37;6.13;;;20.80;54.00;;;;;;4770002;30;20469;-79
2021/07/26 06:34:20;;;;;;;38.37;6.60;;;20.80;54.00;;;;;;4771712;30;20468;-78
2021/07/26 06:36:47;;;;;;;38.00;6.30;;;20.90;52.10;;;;;;4767683;30;20549;-80
2021/07/26 06:39:14;;;;;;;38.63;7.07;;;20.90;51.20;;;;;;4753739;30;20855;-79
2021/07/26 06:41:41;;;;;;;40.47;8.10;;;20.90;53.10;;;;;;4753617;30;20466;-77
2021/07/26 06:44:08;;;;;;;39.70;7.50;;;20.90;48.90;;;;;;4752928;30;20501;-77
2021/07/26 06:46:35;;;;;;;39.67;7.20;;;21.00;49.60;;;;;;4753493;30;20898;-79
2021/07/26 06:49:02;;;;;;;36.97;7.97;;;21.10;50.70;;;;;;4753588;30;20469;-79
2021/07/26 06:51:30;;;;;;;38.90;9.30;;;21.20;44.70;;;;;;4753498;30;20462;-80
2021/07/26 06:53:57;;;;;;;38.90;6.83;;;21.60;43.10;;;;;;4753455;30;20476;-79
2021/07/26 06:56:25;;;;;;;38.63;8.27;;;21.90;39.80;;;;;;4756131;30;20464;-82
2021/07/26 06:58:51;;;;;;;42.13;6.83;;;22.40;37.50;;;;;;4769961;30;20552;-81
2021/07/26 07:01:18;;;;;;;44.27;6.70;;;22.80;33.40;;;;;;4768751;30;20469;-82
2021/07/26 07:03:46;;;;;;;47.33;7.50;;;23.20;34.10;;;;;;4769850;30;20500;-82
2021/07/26 07:06:14;;;;;;;52.60;8.63;;;24.10;29.90;;;;;;4769888;30;20471;-82
2021/07/26 07:08:44;;;;;;;48.63;8.97;;;24.20;27.90;;;;;;4771217;30;20472;-83
2021/07/26 07:11:12;;;;;;;50.50;9.57;;;24.30;26.40;;;;;;4770889;30;20491;-84
2021/07/26 07:13:41;;;;;;;52.37;10.10;;;24.30;24.50;;;;;;4770940;30;20473;-84
2021/07/26 07:16:08;;;;;;;51.80;9.80;;;24.40;24.60;;;;;;4769722;30;20469;-84
2021/07/26 07:18:36;;;;;;;50.37;10.70;;;23.80;24.10;;;;;;4770639;30;20480;-83
2021/07/26 07:21:02;;;;;;;57.07;7.43;;;23.80;26.20;;;;;;4771017;30;20468;-82
2021/07/26 07:23:29;;;;;;;49.70;9.90;;;24.00;24.30;;;;;;4770672;30;20500;-80
2021/07/26 07:25:59;;;;;;;55.07;10.30;;;24.70;24.50;;;;;;4770788;30;20472;-82
2021/07/26 07:28:26;;;;;;;50.10;8.80;;;24.40;22.90;;;;;;4770616;30;20500;-82
2021/07/26 07:30:53;;;;;;;52.27;9.53;;;24.30;22.80;;;;;;4769579;30;20476;-83
2021/07/26 07:33:19;;;;;;;48.57;8.07;;;24.40;22.90;;;;;;4770612;30;20465;-79
2021/07/26 07:35:46;;;;;;;49.97;8.23;;;24.00;21.70;;;;;;4770456;30;20464;-82
2021/07/26 07:38:13;;;;;;;51.83;7.90;;;24.10;22.70;;;;;;4770483;30;20464;-83
2021/07/26 07:40:40;;;;;;;49.60;9.40;;;23.60;21.70;;;;;;4770406;30;20479;-79
2021/07/26 07:43:08;;;;;;;49.70;9.60;;;23.70;22.80;;;;;;4770467;30;20507;-83
2021/07/26 07:45:35;;;;;;;50.87;9.97;;;23.80;22.40;;;;;;4769122;30;20473;-83
2021/07/26 07:48:02;;;;;;;54.90;13.57;;;24.10;22.70;;;;;;4769993;30;20988;-80
2021/07/26 07:50:29;;;;;;;53.83;5.77;;;24.80;22.00;;;;;;4770253;30;20473;-80
2021/07/26 07:52:58;;;;;;;55.40;6.57;;;25.00;17.20;;;;;;4770131;30;20475;-78
2021/07/26 07:55:25;;;;;;;49.40;5.87;;;25.00;19.00;;;;;;4770247;30;20885;-82
2021/07/26 07:57:52;;;;;;;50.57;7.10;;;24.40;17.90;;;;;;4770174;30;20531;-78
2021/07/26 08:00:22;;;;;;;49.07;6.10;;;24.80;19.60;;;;;;4769128;29;20488;-86
2021/07/26 08:02:52;;;;;;;47.20;5.87;;;24.90;18.20;;;;;;4769760;30;20987;-84
2021/07/26 08:05:19;;;;;;;47.47;6.23;;;24.70;18.20;;;;;;4770249;30;20465;-82
2021/07/26 08:07:47;;;;;;;50.97;6.50;;;24.20;19.60;;;;;;4771214;30;20857;-80
2021/07/26 08:10:14;;;;;;;48.20;6.03;;;24.00;21.10;;;;;;4772233;30;20497;-84
2021/07/26 08:12:42;;;;;;;46.40;5.60;;;24.20;22.00;;;;;;4770585;30;20479;-79
2021/07/26 08:15:10;;;;;;;46.80;5.97;;;24.50;19.10;;;;;;4768938;30;20503;-83
2021/07/26 08:17:40;;;;;;;48.50;5.27;;;25.20;18.90;;;;;;4770301;30;20503;-79
2021/07/26 08:20:09;;;;;;;51.13;4.97;;;25.50;16.10;;;;;;4770744;30;20467;-82
2021/07/26 08:22:36;;;;;;;50.90;6.23;;;25.40;16.00;;;;;;4769548;30;20472;-84
2021/07/26 08:25:04;;;;;;;49.53;6.90;;;25.50;16.80;;;;;;4769939;30;20499;-84
2021/07/26 08:27:31;;;;;;;48.97;5.43;;;25.60;13.80;;;;;;4769677;30;20567;-80
2021/07/26 08:29:58;;;;;;;54.03;12.87;;;25.80;15.00;;;;;;4768755;30;20488;-82
2021/07/26 08:32:25;;;;;;;50.40;6.73;;;25.60;13.90;;;;;;4769912;30;20497;-84
2021/07/26 08:34:53;;;;;;;48.80;7.13;;;25.30;14.20;;;;;;4769858;30;20556;-82
2021/07/26 08:37:30;;;;;;;49.97;6.93;;;25.60;14.50;;;;;;4769781;30;20464;-84
2021/07/26 08:40:01;;;;;;;49.40;7.30;;;25.90;12.90;;;;;;4769754;30;20488;-83
2021/07/26 08:42:29;;;;;;;49.00;5.80;;;26.20;13.60;;;;;;4770126;30;20488;-80
2021/07/26 08:44:56;;;;;;;48.80;7.37;;;26.40;13.40;;;;;;4768485;30;20484;-83
2021/07/26 08:47:24;;;;;;;60.40;7.33;;;25.60;13.20;;;;;;4769841;30;20486;-82
2021/07/26 08:49:59;;;;;;;50.07;5.93;;;25.10;14.20;;;;;;4769410;30;20500;-82
2021/07/26 08:52:27;;;;;;;45.60;5.03;;;25.00;15.80;;;;;;4769718;30;20469;-82
2021/07/26 08:54:56;;;;;;;49.97;5.80;;;25.00;14.80;;;;;;4768937;30;20482;-82
2021/07/26 08:57:23;;;;;;;45.40;6.30;;;25.30;15.90;;;;;;4770152;30;20203;-85
2021/07/26 08:59:53;;;;;;;44.40;7.70;;;25.10;15.80;;;;;;4768966;30;20476;-89
2021/07/26 09:02:22;;;;;;;46.60;5.20;;;25.10;15.80;;;;;;4769976;30;20481;-87
2021/07/26 09:04:49;;;;;;;44.20;5.57;;;25.90;15.60;;;;;;4767023;30;20508;-86
2021/07/26 09:07:28;;;;;;;47.10;5.63;;;25.60;11.60;;;;;;4768575;30;20475;-84
2021/07/26 09:17:13;;;;;;;48.30;8.83;;;26.80;8.70;;;;;;4610736;31;20507;-82
2021/07/26 09:20:30;;;;;;;;;;;;;;;;;;;;;
2021/07/26 09:32:59;;;;;;;52.87;5.50;;;28.50;2.20;;;;;;4701668;30;20559;-82
2021/07/26 09:35:48;;;;;;;;;;;;;;;;;;;;;
2021/07/26 09:38:27;;;;;;;49.90;6.27;;;27.40;5.10;;;;;;4771472;30;20539;-81
2021/07/26 09:41:17;;;;;;;;;;;;;;;;;;;;;
2021/07/26 09:43:44;;;;;;;45.30;7.23;;;26.60;9.00;;;;;;4763031;30;20468;-80
2021/07/26 09:46:24;;;;;;;44.17;3.70;;;26.20;7.30;;;;;;4771073;30;20504;-81
2021/07/26 09:49:07;;;;;;;43.37;4.07;;;26.10;8.70;;;;;;4772338;30;20631;-81
2021/07/26 09:51:39;;;;;;;45.20;5.90;;;26.00;9.20;;;;;;4772252;30;20480;-81
2021/07/26 09:54:08;;;;;;;42.97;4.17;;;26.00;8.70;;;;;;4772279;30;20496;-82
2021/07/26 09:56:35;;;;;;;41.47;3.90;;;26.00;8.70;;;;;;4772199;30;20826;-81
2021/07/26 09:59:03;;;;;;;41.23;3.87;;;26.80;6.80;;;;;;4772192;30;20477;-81
2021/07/26 10:01:32;;;;;;;43.97;4.80;;;27.40;4.10;;;;;;4770941;30;20541;-81
2021/07/26 10:04:01;;;;;;;45.70;5.10;;;28.30;4.60;;;;;;4772221;30;20646;-81
2021/07/26 10:06:29;;;;;;;46.53;9.10;;;28.70;2.30;;;;;;4773032;30;20461;-82
2021/07/26 10:08:56;;;;;;;47.53;6.40;;;28.70;1.00;;;;;;4772034;30;20560;-81
2021/07/26 10:11:27;;;;;;;48.83;11.00;;;29.00;2.40;;;;;;4772043;30;20471;-82
2021/07/26 10:13:55;;;;;;;48.07;7.27;;;28.30;1.00;;;;;;4771847;30;20545;-80
2021/07/26 10:16:22;;;;;;;52.53;13.10;;;27.50;1.60;;;;;;4770836;30;20476;-81
2021/07/26 10:19:06;;;;;;;48.20;13.03;;;26.90;3.50;;;;;;4771825;30;20484;-81
2021/07/26 10:36:51;;;;;;;43.60;6.63;;;27.50;3.80;;;;;;5131344;27;21051;-76
2021/07/26 10:39:19;;;;;;;45.10;5.67;;;28.70;2.40;;;;;;5131324;27;20452;-78
2021/07/26 10:42:05;;;;;;;47.50;7.40;;;29.50;1.00;;;;;;5131115;27;20444;-78
2021/07/26 10:44:47;;;;;;;46.80;11.43;;;30.80;1.00;;;;;;5129813;27;20459;-77
2021/07/26 10:47:20;;;;;;;51.60;13.50;;;30.90;1.00;;;;;;5130843;27;20443;-78
2021/07/26 13:08:54;;;;;;;146.80;133.73;;;24.00;99.90;;;;;;5072399;28;20962;-83
2021/07/26 14:39:26;;;;;;;45.50;8.10;;;25.50;15.50;;;;;;4288048;23;21109;-75
2021/07/26 14:41:53;;;;;;;46.63;7.43;;;24.90;18.80;;;;;;4993306;28;20964;-77
2021/07/26 14:44:20;;;;;;;44.90;7.37;;;24.50;21.00;;;;;;4992178;28;20465;-76
2021/07/26 14:46:47;;;;;;;46.40;7.53;;;24.00;23.60;;;;;;4993308;28;20486;-76
2021/07/26 14:49:14;;;;;;;47.10;9.80;;;23.40;29.40;;;;;;4993119;28;20464;-75
2021/07/26 14:51:41;;;;;;;49.17;7.00;;;22.90;32.60;;;;;;4993236;28;20454;-75
2021/07/26 14:54:07;;;;;;;49.03;8.27;;;22.70;37.80;;;;;;4993337;28;20454;-77
2021/07/26 14:56:36;;;;;;;46.87;6.13;;;22.80;39.60;;;;;;4994544;28;20453;-79
2021/07/26 14:59:03;;;;;;;46.10;7.50;;;22.90;34.70;;;;;;4993101;28;20454;-79
2021/07/26 15:01:32;;;;;;;47.10;7.23;;;23.30;39.10;;;;;;4993203;28;20460;-79
2021/07/26 15:03:59;;;;;;;49.80;10.47;;;23.30;34.80;;;;;;4993141;28;20461;-80
2021/07/26 15:06:26;;;;;;;49.83;10.60;;;23.90;35.30;;;;;;4993725;28;20500;-82
2021/07/26 15:08:52;;;;;;;49.83;17.03;;;24.30;28.60;;;;;;4993857;28;20454;-83
2021/07/26 15:11:19;;;;;;;43.13;4.40;;;24.90;29.20;;;;;;4994249;28;20537;-83
2021/07/26 15:13:48;;;;;;;43.47;4.73;;;25.40;25.50;;;;;;4993447;28;20883;-82
2021/07/26 15:16:15;;;;;;;44.60;6.10;;;25.50;23.00;;;;;;4992054;28;20478;-83
2021/07/26 15:18:42;;;;;;;44.93;4.70;;;25.30;23.50;;;;;;4993728;28;20454;-81
2021/07/26 15:21:09;;;;;;;47.83;5.40;;;24.90;21.00;;;;;;4993431;28;20540;-83
2021/07/26 16:26:52;;;;;;;38.77;3.20;;;30.00;1.00;;;;;;5009023;23;20480;-84
2021/07/26 16:44:04;;;;;;;48.77;5.67;;;32.20;1.00;;;;;;4995600;23;20482;-80
2021/07/26 16:46:31;;;;;;;49.50;6.93;;;32.60;1.00;;;;;;4899780;29;20475;-84
2021/07/26 16:48:57;;;;;;;51.03;7.80;;;31.40;1.00;;;;;;4899679;29;20501;-83
2021/07/26 16:51:24;;;;;;;51.00;7.33;;;30.90;1.00;;;;;;4899535;29;20826;-79
2021/07/26 16:53:51;;;;;;;51.50;6.60;;;29.80;1.00;;;;;;4899635;29;20441;-81
2021/07/26 17:14:14;;;;;;;45.00;4.37;;;24.60;12.90;;;;;;4686390;30;20977;-83
2021/07/26 17:16:41;;;;;;;43.90;4.33;;;24.20;13.40;;;;;;4723720;29;20834;-84
2021/07/26 17:35:58;;;;;;;40.17;5.63;;;22.80;20.40;;;;;;4554220;31;20490;-89
2021/07/26 17:38:27;;;;;;;40.40;5.20;;;22.70;21.60;;;;;;4671574;30;20517;-82
2021/07/26 17:40:55;;;;;;;40.53;4.43;;;22.60;21.60;;;;;;4714883;30;20497;-84
2021/07/26 17:43:23;;;;;;;41.50;6.03;;;22.60;21.60;;;;;;4733147;30;20463;-86
2021/07/26 17:45:49;;;;;;;40.03;5.13;;;22.50;21.50;;;;;;4775397;29;20914;-84
2021/07/26 17:48:16;;;;;;;39.00;4.97;;;22.40;21.40;;;;;;4879988;29;20543;-85
2021/07/26 17:50:43;;;;;;;39.13;4.83;;;22.40;21.50;;;;;;4879817;29;20483;-85
2021/07/26 17:53:11;;;;;;;42.37;6.53;;;22.30;21.70;;;;;;4879754;29;20897;-82
